KBML/BML METAR and TAF weather

Enter ICAO airport designator
Station Type Date Time Source
KBML METAR 2019/08/20 17:52 UTC NOAA

KBML 201752Z AUTO 00000KT 10SM CLR 27/11 A3006 RMK AO2 SLP175 T02720106 10272 20189 58015


Station Type Date Time Source
KBML Decoded METAR 2019/08/20 17:52 UTC NOAA

Station name not available
Aug 20, 2019 - 01:52 PM EDT / 2019.08.20 1752 UTC
Wind: Calm:0
Visibility: 10 mile(s):0
Sky conditions: clear
Temperature: 81.0 F (27.2 C)
Dew Point: 51.1 F (10.6 C)
Relative Humidity: 35%
Pressure (altimeter): 30.06 in. Hg (1017 hPa)
Pressure tendency: 0.04 inches (1.5 hPa) lower than three hours ago
ob: KBML 201752Z AUTO 00000KT 10SM CLR 27/11 A3006 RMK AO2 SLP175 T02720106 10272 20189 58015
cycle: 18

Station Type Date Time Source
KBML TAF UTC NOAA

Error!

Example: see airport list